createdAt,value
2023-02-23T00:03:30.537Z,40.50
2023-02-23T00:08:36.157Z,38.40
2023-02-23T00:19:00.489Z,35.40
2023-02-23T00:24:09.056Z,31.90
2023-02-23T00:29:18.487Z,35.20
2023-02-23T00:34:25.588Z,31.30
2023-02-23T00:39:29.665Z,31.00
2023-02-23T00:44:35.005Z,29.30
2023-02-23T00:49:38.463Z,28.00
2023-02-23T00:54:41.750Z,29.00
2023-02-23T00:59:44.244Z,27.90
2023-02-23T01:04:46.812Z,29.40
2023-02-23T01:09:49.096Z,24.40
2023-02-23T01:14:51.679Z,24.50
2023-02-23T01:19:55.334Z,22.40
2023-02-23T01:24:57.874Z,25.70
2023-02-23T01:30:00.962Z,23.90
2023-02-23T01:35:09.409Z,23.80
2023-02-23T01:40:29.189Z,22.40
2023-02-23T01:45:34.881Z,23.60
2023-02-23T01:51:20.905Z,23.60
2023-02-23T01:56:31.625Z,21.60
2023-02-23T02:01:35.910Z,22.40
2023-02-23T02:06:40.190Z,21.80
2023-02-23T02:11:46.390Z,19.30
2023-02-23T02:17:37.512Z,21.30
2023-02-23T02:23:23.521Z,18.20
2023-02-23T02:28:33.185Z,20.70
2023-02-23T02:33:48.883Z,19.10
2023-02-23T02:39:23.945Z,19.20
2023-02-23T02:44:29.466Z,17.70
2023-02-23T02:49:47.932Z,15.20
2023-02-23T02:54:58.247Z,14.60
2023-02-23T03:00:24.024Z,18.90
2023-02-23T03:06:04.234Z,17.40
2023-02-23T03:11:31.061Z,16.80
2023-02-23T03:17:23.418Z,17.20
2023-02-23T03:22:47.051Z,14.10
2023-02-23T03:28:33.632Z,14.90
2023-02-23T03:34:28.502Z,16.90
2023-02-23T03:40:15.293Z,15.90
2023-02-23T03:45:43.348Z,13.90
2023-02-23T03:51:18.407Z,13.70
2023-02-23T03:56:53.046Z,16.60
2023-02-23T04:02:27.504Z,16.00
2023-02-23T04:07:53.494Z,16.40
2023-02-23T04:13:16.667Z,15.80
2023-02-23T04:18:25.349Z,17.30
2023-02-23T04:23:34.856Z,17.00
2023-02-23T04:28:37.274Z,18.00
2023-02-23T04:33:40.222Z,19.30
2023-02-23T04:38:42.541Z,18.60
2023-02-23T04:43:44.934Z,20.70
2023-02-23T04:48:47.732Z,20.00
2023-02-23T04:53:50.199Z,20.70
2023-02-23T04:58:53.388Z,21.60
2023-02-23T05:04:00.449Z,20.80
2023-02-23T05:09:06.240Z,20.60
2023-02-23T05:14:09.924Z,22.80
2023-02-23T05:19:12.610Z,19.50
2023-02-23T05:24:17.824Z,21.70
2023-02-23T05:29:20.412Z,21.50
2023-02-23T05:34:22.633Z,20.00
2023-02-23T05:39:25.496Z,20.90
2023-02-23T05:44:28.743Z,24.40
2023-02-23T05:49:31.069Z,23.80
2023-02-23T05:54:33.574Z,25.90
2023-02-23T05:59:36.172Z,26.40
2023-02-23T06:04:38.710Z,24.50
2023-02-23T06:09:44.301Z,26.80
2023-02-23T06:14:47.960Z,25.90
2023-02-23T06:19:50.910Z,26.20
2023-02-23T06:24:53.281Z,22.90
2023-02-23T06:29:55.695Z,24.20
2023-02-23T06:34:58.789Z,25.90
2023-02-23T06:40:01.897Z,25.30
2023-02-23T06:45:05.921Z,25.30
2023-02-23T06:50:09.812Z,27.10
2023-02-23T06:55:13.295Z,26.60
2023-02-23T07:00:17.843Z,24.30
2023-02-23T07:05:25.871Z,25.00
2023-02-23T07:10:31.165Z,27.10
2023-02-23T07:15:36.382Z,25.50
2023-02-23T07:20:38.633Z,26.50
2023-02-23T07:25:41.226Z,26.50
2023-02-23T07:30:43.745Z,28.90
2023-02-23T07:35:45.960Z,31.60
2023-02-23T07:40:50.632Z,29.80
2023-02-23T07:45:52.855Z,29.20
2023-02-23T07:50:55.220Z,33.30
2023-02-23T07:55:58.279Z,79.90
2023-02-23T08:01:00.345Z,30.00
2023-02-23T08:06:02.827Z,45.00
2023-02-23T08:11:05.798Z,29.40
2023-02-23T08:16:08.228Z,29.50
2023-02-23T08:21:10.527Z,29.70
2023-02-23T08:26:12.674Z,30.20
2023-02-23T08:31:18.688Z,32.40
2023-02-23T08:36:21.167Z,30.50
2023-02-23T08:41:23.206Z,30.10
2023-02-23T08:46:26.248Z,30.20
2023-02-23T08:51:28.658Z,30.80
2023-02-23T08:56:31.859Z,30.80
2023-02-23T09:01:34.910Z,30.40
2023-02-23T09:06:37.541Z,32.20
2023-02-23T09:11:39.498Z,30.40
2023-02-23T09:16:41.719Z,31.40
2023-02-23T09:21:44.655Z,29.90
2023-02-23T09:26:46.618Z,46.50
2023-02-23T09:31:48.873Z,35.90
2023-02-23T09:36:52.201Z,35.40
2023-02-23T09:42:13.976Z,31.60
2023-02-23T09:47:36.539Z,31.70
2023-02-23T09:53:05.782Z,28.80
2023-02-23T09:58:25.237Z,31.30
2023-02-23T10:03:33.457Z,31.80
2023-02-23T10:08:47.120Z,31.00
2023-02-23T10:13:49.142Z,31.90
2023-02-23T10:19:00.941Z,31.50
2023-02-23T10:24:14.153Z,31.40
2023-02-23T10:29:31.376Z,31.70
2023-02-23T10:34:35.365Z,32.10
2023-02-23T10:39:37.659Z,31.10
2023-02-23T10:44:45.771Z,30.00
2023-02-23T10:49:51.849Z,29.70
2023-02-23T10:54:54.224Z,28.60
2023-02-23T11:00:17.123Z,30.00
2023-02-23T11:05:46.067Z,29.50
2023-02-23T11:10:59.934Z,29.00
2023-02-23T11:16:10.483Z,29.30
2023-02-23T11:21:21.952Z,30.30
2023-02-23T11:26:32.848Z,28.30
2023-02-23T11:31:36.693Z,29.70
2023-02-23T11:36:39.227Z,26.70
2023-02-23T11:41:41.966Z,27.00
2023-02-23T11:46:45.916Z,26.20
2023-02-23T11:51:50.634Z,26.80
2023-02-23T11:56:55.417Z,26.10
2023-02-23T12:02:19.198Z,27.90
2023-02-23T12:07:43.102Z,23.50
2023-02-23T12:13:02.695Z,19.70
2023-02-23T12:18:19.158Z,17.90
2023-02-23T12:23:29.003Z,17.20
2023-02-23T12:28:42.351Z,15.80
2023-02-23T12:33:48.667Z,14.70
2023-02-23T12:39:04.711Z,15.30
2023-02-23T12:44:32.214Z,15.20
2023-02-23T12:49:57.545Z,14.60
2023-02-23T12:55:00.948Z,15.80
2023-02-23T13:00:30.689Z,18.50
2023-02-23T13:05:39.685Z,16.90
2023-02-23T13:11:07.152Z,16.20
2023-02-23T13:16:33.062Z,14.20
2023-02-23T13:21:40.599Z,14.60
2023-02-23T13:27:03.497Z,15.30
2023-02-23T13:32:16.351Z,14.20
2023-02-23T13:37:26.393Z,14.20
2023-02-23T13:43:07.214Z,14.10
2023-02-23T13:48:28.185Z,14.30
2023-02-23T13:54:12.023Z,13.20
2023-02-23T13:59:46.122Z,12.40
2023-02-23T14:04:54.005Z,12.80
2023-02-23T14:10:06.672Z,12.80
2023-02-23T14:15:28.304Z,12.90
2023-02-23T14:20:39.677Z,13.40
2023-02-23T14:25:55.160Z,12.90
2023-02-23T14:31:11.516Z,15.70
2023-02-23T14:36:22.328Z,15.30
2023-02-23T14:41:35.446Z,15.70
2023-02-23T14:46:38.284Z,16.70
2023-02-23T14:52:08.187Z,18.20
2023-02-23T14:57:18.540Z,17.10
2023-02-23T15:02:24.300Z,18.00
2023-02-23T15:07:40.761Z,18.40
2023-02-23T15:12:43.323Z,18.90
2023-02-23T15:17:47.802Z,18.20
2023-02-23T15:22:55.142Z,18.70
2023-02-23T15:28:00.386Z,21.10
2023-02-23T15:33:12.360Z,24.80
2023-02-23T15:38:42.997Z,29.00
2023-02-23T15:43:46.163Z,31.30
2023-02-23T15:48:50.434Z,32.40
2023-02-23T15:53:54.102Z,35.40
2023-02-23T15:59:13.814Z,38.10
2023-02-23T16:04:19.637Z,43.10
2023-02-23T16:09:23.888Z,39.10
2023-02-23T16:14:30.711Z,37.20
2023-02-23T16:19:32.746Z,38.00
2023-02-23T16:24:37.493Z,39.10
2023-02-23T16:29:42.020Z,40.50
2023-02-23T16:35:00.954Z,43.60
2023-02-23T16:40:03.340Z,45.80
2023-02-23T16:45:16.063Z,47.60
2023-02-23T16:50:24.391Z,43.90
2023-02-23T16:55:28.184Z,37.40
2023-02-23T17:00:33.371Z,37.40
2023-02-23T17:05:35.429Z,51.10
2023-02-23T17:10:38.002Z,55.70
2023-02-23T17:15:48.034Z,48.30
2023-02-23T17:20:51.413Z,38.70
2023-02-23T17:25:55.937Z,33.60
2023-02-23T17:30:58.278Z,31.40
2023-02-23T17:36:05.085Z,28.50
2023-02-23T17:41:14.981Z,28.90
2023-02-23T17:46:17.479Z,32.90
2023-02-23T17:51:22.631Z,32.80
2023-02-23T17:56:24.921Z,32.30
2023-02-23T18:01:27.276Z,32.10
2023-02-23T18:06:30.830Z,32.20
2023-02-23T18:11:37.428Z,32.40
2023-02-23T18:16:46.574Z,32.90
2023-02-23T18:21:48.821Z,30.80
2023-02-23T18:26:51.602Z,31.00
2023-02-23T18:31:53.707Z,30.50
2023-02-23T18:37:02.233Z,29.10
2023-02-23T18:42:05.039Z,30.50
2023-02-23T18:47:17.225Z,34.90
2023-02-23T18:52:19.791Z,35.30
2023-02-23T18:57:23.631Z,38.40
2023-02-23T19:02:27.512Z,49.00
2023-02-23T19:07:30.860Z,40.30
2023-02-23T19:12:33.479Z,38.70
2023-02-23T19:17:36.791Z,40.60
2023-02-23T19:22:41.355Z,42.30
2023-02-23T19:27:43.701Z,42.40
2023-02-23T19:32:45.973Z,43.00
2023-02-23T19:37:50.552Z,41.30
2023-02-23T19:42:53.323Z,39.50
2023-02-23T19:47:55.594Z,36.00
2023-02-23T19:52:58.138Z,28.90
2023-02-23T19:58:03.179Z,22.90
2023-02-23T20:03:07.037Z,18.60
2023-02-23T20:08:10.118Z,16.60
2023-02-23T20:13:16.005Z,13.80
2023-02-23T20:18:21.176Z,15.40
2023-02-23T20:23:25.992Z,13.60
2023-02-23T20:28:28.426Z,14.50
2023-02-23T20:33:31.708Z,13.60
2023-02-23T20:38:33.956Z,13.80
2023-02-23T20:43:38.501Z,13.70
2023-02-23T20:48:41.071Z,12.80
2023-02-23T20:53:46.556Z,12.30
2023-02-23T20:58:48.511Z,13.50
2023-02-23T21:03:51.676Z,13.30
2023-02-23T21:09:03.211Z,12.30
2023-02-23T21:14:08.393Z,13.20
2023-02-23T21:19:11.408Z,13.50
2023-02-23T21:24:15.245Z,13.50
2023-02-23T21:29:18.138Z,12.70
2023-02-23T21:34:20.294Z,13.20
2023-02-23T21:39:22.995Z,12.80
2023-02-23T21:44:25.134Z,12.30
2023-02-23T21:49:27.328Z,13.00
2023-02-23T21:54:29.287Z,11.90
2023-02-23T21:59:34.633Z,13.60
2023-02-23T22:04:37.283Z,11.90
2023-02-23T22:09:39.863Z,12.40
2023-02-23T22:14:44.802Z,12.80
2023-02-23T22:19:50.419Z,12.40
2023-02-23T22:24:52.370Z,13.40
2023-02-23T22:29:54.302Z,12.90
2023-02-23T22:34:56.283Z,12.20
2023-02-23T22:40:00.291Z,12.50
2023-02-23T22:45:08.477Z,12.50
2023-02-23T22:50:13.967Z,12.70
2023-02-23T22:55:16.175Z,13.20
2023-02-23T23:00:18.839Z,13.60
2023-02-23T23:05:21.748Z,13.60
2023-02-23T23:10:27.103Z,13.10
2023-02-23T23:15:29.852Z,13.70
2023-02-23T23:20:32.071Z,13.20
2023-02-23T23:25:34.128Z,13.70
2023-02-23T23:30:36.197Z,13.10
2023-02-23T23:35:38.282Z,12.90
2023-02-23T23:40:47.025Z,11.80
2023-02-23T23:45:51.767Z,11.80
2023-02-23T23:50:56.247Z,13.20
2023-02-23T23:56:05.557Z,13.30
